createdAt,value
2023-04-15T00:00:15.351Z,68.51
2023-04-15T00:02:49.785Z,68.79
2023-04-15T00:05:22.315Z,69.46
2023-04-15T00:07:53.829Z,68.83
2023-04-15T00:10:26.162Z,68.17
2023-04-15T00:12:57.834Z,66.92
2023-04-15T00:15:29.497Z,69.61
2023-04-15T00:18:01.246Z,70.01
2023-04-15T00:20:32.915Z,71.38
2023-04-15T00:23:04.629Z,70.66
2023-04-15T00:25:36.374Z,71.23
2023-04-15T00:28:08.067Z,70.18
2023-04-15T00:30:39.801Z,70.04
2023-04-15T00:33:11.523Z,70.22
2023-04-15T00:35:43.222Z,69.16
2023-04-15T00:38:14.830Z,70.56
2023-04-15T00:40:46.786Z,70.54
2023-04-15T00:43:18.502Z,71.68
2023-04-15T00:45:53.175Z,70.17
2023-04-15T00:48:26.291Z,70.90
2023-04-15T00:50:58.146Z,70.39
2023-04-15T00:53:29.824Z,72.83
2023-04-15T00:56:01.496Z,69.62
2023-04-15T00:58:33.294Z,68.95
2023-04-15T01:01:05.134Z,67.66
2023-04-15T01:03:37.707Z,69.16
2023-04-15T01:06:09.742Z,70.05
2023-04-15T01:08:41.361Z,67.99
2023-04-15T01:11:14.426Z,69.61
2023-04-15T01:13:47.227Z,67.85
2023-04-15T01:16:20.053Z,68.22
2023-04-15T01:18:52.577Z,67.32
2023-04-15T01:21:24.230Z,69.70
2023-04-15T01:23:56.289Z,69.29
2023-04-15T01:26:28.289Z,69.91
2023-04-15T01:29:00.283Z,72.17
2023-04-15T01:31:32.601Z,72.44
2023-04-15T01:34:04.516Z,70.97
2023-04-15T01:36:36.150Z,71.16
2023-04-15T01:39:08.327Z,71.88
2023-04-15T01:41:40.006Z,72.38
2023-04-15T01:44:11.784Z,73.54
2023-04-15T01:46:44.967Z,72.07
2023-04-15T01:49:16.532Z,71.26
2023-04-15T01:51:48.403Z,71.87
2023-04-15T01:54:20.220Z,70.60
2023-04-15T01:56:51.918Z,69.24
2023-04-15T01:59:23.771Z,68.72
2023-04-15T02:01:55.731Z,69.62
2023-04-15T02:04:27.542Z,68.20
2023-04-15T02:06:59.315Z,69.44
2023-04-15T02:09:31.139Z,68.57
2023-04-15T02:12:02.971Z,67.97
2023-04-15T02:14:34.838Z,68.71
2023-04-15T02:17:06.880Z,68.00
2023-04-15T02:19:38.832Z,68.85
2023-04-15T02:22:10.779Z,69.17
2023-04-15T02:24:42.504Z,69.23
2023-04-15T02:27:16.548Z,68.70
2023-04-15T02:29:48.778Z,68.10
2023-04-15T02:32:20.930Z,67.18
2023-04-15T02:34:52.674Z,66.81
2023-04-15T02:37:24.697Z,69.47
2023-04-15T02:39:56.339Z,70.12
2023-04-15T02:42:27.994Z,70.51
2023-04-15T02:44:59.824Z,69.95
2023-04-15T02:47:36.039Z,70.78
2023-04-15T02:50:12.418Z,71.70
2023-04-15T02:52:45.943Z,68.15
2023-04-15T02:55:17.663Z,70.99
2023-04-15T02:57:49.270Z,72.30
2023-04-15T03:00:20.937Z,72.54
2023-04-15T03:06:08.731Z,71.53
2023-04-15T03:08:40.408Z,71.16
2023-04-15T03:11:12.088Z,72.05
2023-04-15T03:13:43.798Z,72.00
2023-04-15T03:16:26.685Z,71.63
2023-04-15T03:18:58.381Z,70.96
2023-04-15T03:21:30.301Z,71.19
2023-04-15T03:24:01.974Z,70.13
2023-04-15T03:26:34.240Z,71.68
2023-04-15T03:29:10.934Z,72.78
2023-04-15T03:31:44.320Z,73.11
2023-04-15T03:34:16.498Z,73.01
2023-04-15T03:36:48.139Z,72.14
2023-04-15T03:39:19.741Z,72.25
2023-04-15T03:41:51.348Z,71.42
2023-04-15T03:44:22.983Z,71.80
2023-04-15T03:46:54.761Z,72.01
2023-04-15T03:49:26.413Z,71.33
2023-04-15T03:51:58.139Z,69.16
2023-04-15T03:54:29.882Z,69.75
2023-04-15T03:57:01.552Z,70.11
2023-04-15T03:59:33.128Z,70.46
2023-04-15T04:02:04.807Z,69.73
2023-04-15T04:04:36.544Z,69.44
2023-04-15T04:07:08.286Z,70.22
2023-04-15T04:09:39.876Z,70.30
2023-04-15T04:12:11.736Z,71.23
2023-04-15T04:14:43.668Z,70.93
2023-04-15T04:17:15.531Z,71.87
2023-04-15T04:19:47.361Z,71.60
2023-04-15T04:22:23.385Z,71.42
2023-04-15T04:24:55.166Z,70.81
2023-04-15T04:27:26.902Z,71.32
2023-04-15T04:29:58.563Z,72.57
2023-04-15T04:32:30.456Z,70.64
2023-04-15T04:35:02.424Z,70.50
2023-04-15T04:37:34.232Z,70.34
2023-04-15T04:40:06.841Z,71.72
2023-04-15T04:42:40.205Z,70.54
2023-04-15T04:45:12.183Z,70.56
2023-04-15T04:47:44.009Z,70.55
2023-04-15T04:50:19.167Z,71.58
2023-04-15T04:52:50.927Z,69.96
2023-04-15T04:55:22.956Z,70.34
2023-04-15T04:57:54.710Z,69.19
2023-04-15T05:00:26.817Z,69.89
2023-04-15T05:03:00.991Z,68.31
2023-04-15T05:05:33.025Z,69.90
2023-04-15T05:08:05.763Z,72.45
2023-04-15T05:10:37.804Z,72.32
2023-04-15T05:13:09.906Z,72.62
2023-04-15T05:15:41.656Z,73.90
2023-04-15T05:18:13.348Z,72.54
2023-04-15T05:20:45.092Z,71.43
2023-04-15T05:23:16.979Z,71.50
2023-04-15T05:25:48.793Z,69.62
2023-04-15T05:28:20.467Z,70.94
2023-04-15T05:30:52.233Z,71.03
2023-04-15T05:33:24.038Z,71.19
2023-04-15T05:35:55.642Z,70.18
2023-04-15T05:38:27.359Z,69.17
2023-04-15T05:40:59.241Z,67.56
2023-04-15T05:43:31.397Z,67.00
2023-04-15T05:46:03.122Z,69.67
2023-04-15T05:48:34.866Z,68.58
2023-04-15T05:51:06.592Z,68.85
2023-04-15T05:53:38.183Z,68.28
2023-04-15T05:56:09.839Z,71.26
2023-04-15T05:58:41.456Z,71.32
2023-04-15T06:01:13.151Z,73.38
2023-04-15T06:03:44.928Z,73.65
2023-04-15T06:06:16.701Z,73.74
2023-04-15T06:08:48.460Z,75.61
2023-04-15T06:11:23.316Z,75.48
2023-04-15T06:13:54.991Z,76.56
2023-04-15T06:16:26.881Z,77.01
2023-04-15T06:18:58.679Z,78.15
2023-04-15T06:21:30.906Z,78.20
2023-04-15T06:24:02.743Z,79.45
2023-04-15T06:30:13.280Z,80.33
2023-04-15T06:32:45.390Z,81.25
2023-04-15T06:35:17.195Z,80.97
2023-04-15T06:37:48.877Z,81.48
2023-04-15T06:40:20.475Z,82.11
2023-04-15T06:42:52.244Z,82.06
2023-04-15T06:45:24.316Z,81.85
2023-04-15T06:47:56.118Z,81.46
2023-04-15T06:50:27.961Z,81.62
2023-04-15T06:52:59.819Z,81.45
2023-04-15T06:55:31.660Z,80.67
2023-04-15T06:58:03.632Z,80.10
2023-04-15T07:00:35.619Z,81.58
2023-04-15T07:03:07.392Z,80.42
2023-04-15T07:05:39.629Z,81.47
2023-04-15T07:08:11.521Z,82.49
2023-04-15T07:10:43.209Z,83.13
2023-04-15T07:13:15.138Z,83.43
2023-04-15T07:15:47.049Z,82.56
2023-04-15T07:18:18.924Z,82.52
2023-04-15T07:20:50.708Z,81.44
2023-04-15T07:23:22.765Z,82.33
2023-04-15T07:25:54.441Z,83.33
2023-04-15T07:28:29.322Z,82.00
2023-04-15T07:31:01.133Z,81.21
2023-04-15T07:33:33.090Z,82.02
2023-04-15T07:36:05.046Z,81.20
2023-04-15T07:38:37.155Z,83.03
2023-04-15T07:41:08.968Z,81.97
2023-04-15T07:43:41.026Z,81.91
2023-04-15T07:46:12.777Z,82.02
2023-04-15T07:48:45.150Z,82.66
2023-04-15T07:51:17.067Z,81.74
2023-04-15T07:53:49.738Z,81.13
2023-04-15T07:56:21.410Z,81.02
2023-04-15T07:58:53.337Z,80.71
2023-04-15T08:01:25.114Z,79.26
2023-04-15T08:03:57.592Z,78.08
2023-04-15T08:06:29.394Z,77.23
2023-04-15T08:09:01.245Z,78.90
2023-04-15T08:11:34.043Z,78.54
2023-04-15T08:14:05.812Z,77.79
2023-04-15T08:16:38.390Z,77.44
2023-04-15T08:19:10.288Z,76.34
2023-04-15T08:21:42.097Z,76.52
2023-04-15T08:24:14.114Z,75.74
2023-04-15T08:26:45.917Z,75.69
2023-04-15T08:29:17.600Z,75.09
2023-04-15T08:31:49.371Z,75.95
2023-04-15T08:34:21.150Z,76.81
2023-04-15T08:36:59.521Z,75.25
2023-04-15T08:39:31.368Z,74.58
2023-04-15T08:42:05.935Z,74.69
2023-04-15T08:44:37.762Z,74.05
2023-04-15T08:47:09.625Z,75.57
2023-04-15T08:49:43.246Z,74.11
2023-04-15T08:52:15.112Z,74.36
2023-04-15T08:54:48.065Z,73.20
2023-04-15T08:57:20.080Z,72.54
2023-04-15T08:59:52.900Z,71.91
2023-04-15T09:02:26.775Z,71.77
2023-04-15T09:04:58.980Z,73.38
2023-04-15T09:07:30.660Z,74.50
2023-04-15T09:10:04.240Z,74.89
2023-04-15T09:12:37.517Z,75.14
2023-04-15T09:15:11.897Z,74.66
2023-04-15T09:17:44.575Z,75.14
2023-04-15T09:20:17.263Z,74.89
2023-04-15T09:22:50.819Z,74.99
2023-04-15T09:25:22.851Z,74.98
2023-04-15T09:27:59.593Z,72.97
2023-04-15T09:30:33.699Z,72.47
2023-04-15T09:33:05.704Z,73.21
2023-04-15T09:35:43.553Z,72.65
2023-04-15T09:38:15.503Z,71.49
2023-04-15T09:40:50.064Z,72.76
2023-04-15T09:43:22.103Z,71.89
2023-04-15T09:45:54.346Z,72.25
2023-04-15T09:48:26.249Z,73.62
2023-04-15T09:51:01.934Z,73.73
2023-04-15T09:53:36.217Z,72.85
2023-04-15T09:56:09.429Z,73.20
2023-04-15T09:58:41.235Z,73.01
2023-04-15T10:01:13.800Z,72.84
2023-04-15T10:03:47.267Z,73.30
2023-04-15T10:06:19.731Z,73.17
2023-04-15T10:08:51.579Z,72.62
2023-04-15T10:11:25.030Z,71.23
2023-04-15T10:13:57.495Z,71.64
2023-04-15T10:16:32.868Z,72.00
2023-04-15T10:19:09.628Z,72.23
2023-04-15T10:21:41.799Z,72.76
2023-04-15T10:24:15.576Z,72.16
2023-04-15T10:26:48.007Z,72.26
2023-04-15T10:29:20.851Z,72.11
2023-04-15T10:31:55.470Z,72.13
2023-04-15T10:34:29.489Z,71.83
2023-04-15T10:37:04.694Z,71.50
2023-04-15T10:39:36.293Z,71.24
2023-04-15T10:42:10.919Z,69.99
2023-04-15T10:44:45.662Z,70.88
2023-04-15T10:47:20.013Z,70.20
2023-04-15T10:49:57.492Z,70.18
2023-04-15T10:52:29.976Z,68.77
2023-04-15T10:55:02.888Z,68.68
2023-04-15T10:57:38.506Z,67.12
2023-04-15T11:00:16.043Z,66.63
2023-04-15T11:02:58.372Z,68.17
2023-04-15T11:05:42.016Z,67.38
2023-04-15T11:08:13.835Z,68.28
2023-04-15T11:10:45.470Z,67.60
2023-04-15T11:13:21.365Z,67.03
2023-04-15T11:15:56.900Z,66.85
2023-04-15T11:18:34.146Z,66.89
2023-04-15T11:21:08.123Z,67.11
2023-04-15T11:23:43.876Z,66.20
2023-04-15T11:26:15.587Z,66.11
2023-04-15T11:28:47.451Z,66.01
2023-04-15T11:31:19.308Z,64.76
2023-04-15T11:33:58.803Z,62.76
2023-04-15T11:36:32.943Z,62.59
2023-04-15T11:39:07.362Z,62.74
2023-04-15T11:41:41.868Z,61.50
2023-04-15T11:44:18.503Z,62.13
2023-04-15T11:46:50.180Z,61.47
2023-04-15T11:49:31.456Z,63.20
2023-04-15T11:52:10.945Z,63.23
2023-04-15T11:54:42.765Z,62.01
2023-04-15T11:57:14.560Z,61.56
2023-04-15T11:59:46.417Z,60.97
2023-04-15T12:02:18.505Z,57.27
2023-04-15T12:04:50.408Z,58.83
2023-04-15T12:07:22.099Z,55.84
2023-04-15T12:09:57.916Z,55.52
2023-04-15T12:12:29.902Z,57.04
2023-04-15T12:15:01.785Z,56.42
2023-04-15T12:17:51.851Z,56.88
2023-04-15T12:20:26.946Z,57.63
2023-04-15T12:23:07.869Z,58.52
2023-04-15T12:25:39.640Z,57.41
2023-04-15T12:28:11.742Z,57.41
2023-04-15T12:30:52.295Z,57.61
2023-04-15T12:33:24.155Z,57.42
2023-04-15T12:35:55.977Z,58.88
2023-04-15T12:38:27.860Z,58.76
2023-04-15T12:40:59.651Z,59.89
2023-04-15T12:43:31.449Z,59.29
2023-04-15T12:46:03.393Z,59.05
2023-04-15T12:48:35.275Z,57.84
2023-04-15T12:51:07.558Z,57.86
2023-04-15T12:53:39.857Z,58.87
2023-04-15T12:56:11.836Z,57.80
2023-04-15T12:58:43.636Z,58.20
2023-04-15T13:01:15.395Z,59.16
2023-04-15T13:03:47.382Z,59.78
2023-04-15T13:06:19.092Z,59.82
2023-04-15T13:08:58.433Z,60.74
2023-04-15T13:11:31.290Z,58.24
2023-04-15T13:14:05.663Z,58.53
2023-04-15T13:16:37.532Z,59.19
2023-04-15T13:19:09.353Z,59.03
2023-04-15T13:21:41.139Z,56.96
2023-04-15T13:24:12.782Z,58.24
2023-04-15T13:26:44.453Z,57.19
2023-04-15T13:29:16.058Z,58.17
2023-04-15T13:31:47.748Z,56.55
2023-04-15T13:34:19.840Z,58.20
2023-04-15T13:37:13.885Z,58.12
2023-04-15T13:39:45.807Z,58.59
2023-04-15T13:42:17.429Z,58.72
2023-04-15T13:44:50.479Z,58.23
2023-04-15T13:47:22.201Z,58.04
2023-04-15T13:49:53.923Z,58.39
2023-04-15T13:52:25.494Z,58.45
2023-04-15T13:55:08.369Z,57.60
2023-04-15T13:57:52.835Z,57.57
2023-04-15T14:00:24.717Z,58.91
2023-04-15T14:02:56.453Z,60.72
2023-04-15T14:05:28.463Z,59.81
2023-04-15T14:08:00.316Z,59.64
2023-04-15T14:10:32.068Z,59.84
2023-04-15T14:13:05.875Z,60.27
2023-04-15T14:15:38.037Z,59.14
2023-04-15T14:18:09.809Z,58.69
2023-04-15T14:20:41.562Z,58.65
2023-04-15T14:23:13.337Z,59.21
2023-04-15T14:25:47.929Z,59.57
2023-04-15T14:28:20.218Z,57.76
2023-04-15T14:30:51.988Z,57.97
2023-04-15T14:33:23.724Z,58.26
2023-04-15T14:35:56.002Z,57.88
2023-04-15T14:38:28.040Z,56.46
2023-04-15T14:40:59.778Z,56.88
2023-04-15T14:43:32.137Z,57.66
2023-04-15T14:46:04.379Z,57.11
2023-04-15T14:48:36.299Z,58.48
2023-04-15T14:51:09.114Z,59.78
2023-04-15T14:53:40.755Z,59.63
2023-04-15T14:56:12.648Z,60.92
2023-04-15T14:58:44.426Z,60.31
2023-04-15T15:01:16.421Z,59.79
2023-04-15T15:03:49.691Z,59.91
2023-04-15T15:06:21.980Z,60.35
2023-04-15T15:08:53.721Z,60.07
2023-04-15T15:11:25.497Z,60.72
2023-04-15T15:13:57.408Z,60.76
2023-04-15T15:16:29.255Z,62.60
2023-04-15T15:19:01.379Z,63.12
2023-04-15T15:21:33.555Z,62.96
2023-04-15T15:24:05.762Z,64.60
2023-04-15T15:26:37.813Z,65.96
2023-04-15T15:29:09.754Z,66.30
2023-04-15T15:31:41.841Z,68.85
2023-04-15T15:34:13.612Z,68.54
2023-04-15T15:36:45.470Z,69.03
2023-04-15T15:39:17.205Z,70.04
2023-04-15T15:41:48.980Z,68.01
2023-04-15T15:44:20.646Z,67.76
2023-04-15T15:46:52.401Z,68.17
2023-04-15T15:49:24.092Z,68.14
2023-04-15T15:51:56.280Z,69.62
2023-04-15T15:54:29.006Z,69.88
2023-04-15T15:57:00.715Z,68.79
2023-04-15T15:59:32.529Z,67.60
2023-04-15T16:02:04.606Z,65.88
2023-04-15T16:04:38.251Z,66.74
2023-04-15T16:07:11.164Z,66.95
2023-04-15T16:09:42.880Z,67.03
2023-04-15T16:12:14.621Z,67.80
2023-04-15T16:14:46.635Z,69.28
2023-04-15T16:17:18.256Z,68.36
2023-04-15T16:19:57.398Z,68.86
2023-04-15T16:22:34.848Z,68.56
2023-04-15T16:25:07.080Z,66.34
2023-04-15T16:35:52.628Z,66.23
2023-04-15T16:38:24.256Z,66.58
2023-04-15T16:40:59.994Z,65.96
2023-04-15T16:43:31.945Z,65.16
2023-04-15T16:46:04.757Z,65.36
2023-04-15T16:48:36.407Z,64.86
2023-04-15T16:51:08.122Z,65.38
2023-04-15T16:53:39.963Z,64.92
2023-04-15T16:56:11.723Z,64.32
2023-04-15T16:58:44.412Z,65.89
2023-04-15T17:01:36.911Z,66.12
2023-04-15T17:04:08.765Z,65.65
2023-04-15T17:06:40.567Z,66.57
2023-04-15T17:09:12.336Z,64.69
2023-04-15T17:11:44.551Z,66.89
2023-04-15T17:14:16.898Z,65.35
2023-04-15T17:16:48.631Z,66.51
2023-04-15T17:19:20.514Z,71.61
2023-04-15T17:21:54.700Z,72.38
2023-04-15T17:24:27.011Z,72.25
2023-04-15T17:26:58.862Z,71.21
2023-04-15T17:29:30.681Z,70.54
2023-04-15T17:32:02.630Z,69.21
2023-04-15T17:34:50.044Z,71.32
2023-04-15T17:37:22.616Z,71.09
2023-04-15T17:39:54.501Z,70.63
2023-04-15T17:42:26.504Z,71.66
2023-04-15T17:44:58.312Z,71.49
2023-04-15T17:47:30.129Z,71.03
2023-04-15T17:50:01.917Z,68.85
2023-04-15T17:52:33.901Z,68.65
2023-04-15T17:55:07.366Z,69.43
2023-04-15T17:57:39.280Z,68.08
2023-04-15T18:00:11.778Z,68.69
2023-04-15T18:02:46.866Z,68.30
2023-04-15T18:05:19.058Z,70.49
2023-04-15T18:07:52.115Z,70.45
2023-04-15T18:10:24.058Z,70.36
2023-04-15T18:12:55.929Z,72.26
2023-04-15T18:15:27.821Z,70.14
2023-04-15T18:17:59.847Z,70.71
2023-04-15T18:20:31.866Z,69.97
2023-04-15T18:23:03.641Z,68.99
2023-04-15T18:25:36.033Z,68.33
2023-04-15T18:28:07.819Z,67.58
2023-04-15T18:30:39.488Z,68.39
2023-04-15T18:33:11.154Z,68.43
2023-04-15T18:35:42.913Z,69.74
2023-04-15T18:38:14.625Z,69.95
2023-04-15T18:40:46.275Z,69.31
2023-04-15T18:43:17.848Z,70.95
2023-04-15T18:45:51.557Z,70.98
2023-04-15T18:48:23.172Z,70.60
2023-04-15T18:50:54.918Z,69.07
2023-04-15T18:53:26.520Z,69.03
2023-04-15T18:55:58.253Z,67.56
2023-04-15T18:58:29.930Z,67.77
2023-04-15T19:01:21.562Z,67.48
2023-04-15T19:03:53.312Z,68.49
2023-04-15T19:06:25.138Z,67.72
2023-04-15T19:08:57.240Z,67.78
2023-04-15T19:11:28.977Z,68.12
2023-04-15T19:14:01.045Z,69.14
2023-04-15T19:16:32.836Z,67.24
2023-04-15T19:19:04.842Z,67.30
2023-04-15T19:21:36.890Z,66.26
2023-04-15T19:24:09.720Z,66.67
2023-04-15T19:26:41.448Z,66.84
2023-04-15T19:29:13.178Z,67.28
2023-04-15T19:31:45.191Z,66.58
2023-04-15T19:34:17.136Z,67.09
2023-04-15T19:36:48.756Z,67.55
2023-04-15T19:39:20.417Z,67.58
2023-04-15T19:41:54.086Z,67.17
2023-04-15T19:44:27.571Z,67.41
2023-04-15T19:46:59.836Z,67.07
2023-04-15T19:49:32.024Z,66.88
2023-04-15T19:52:04.663Z,66.89
2023-04-15T19:54:36.607Z,66.86
2023-04-15T19:57:08.386Z,67.33
2023-04-15T19:59:40.347Z,66.29
2023-04-15T20:02:12.256Z,66.77
2023-04-15T20:04:44.152Z,66.53
2023-04-15T20:07:16.005Z,66.92
2023-04-15T20:09:47.840Z,65.94
2023-04-15T20:12:49.808Z,65.75
2023-04-15T20:15:13.135Z,66.65
2023-04-15T20:17:45.152Z,66.48
2023-04-15T20:20:16.796Z,66.86
2023-04-15T20:22:48.727Z,66.65
2023-04-15T20:25:20.567Z,67.04
2023-04-15T20:27:52.948Z,67.79
2023-04-15T20:30:25.217Z,67.49
2023-04-15T20:32:57.088Z,68.00
2023-04-15T20:35:28.954Z,67.86
2023-04-15T20:38:01.492Z,68.11
2023-04-15T20:40:33.319Z,68.18
2023-04-15T20:43:05.058Z,68.25
2023-04-15T20:45:37.253Z,67.57
2023-04-15T20:48:09.221Z,67.85
2023-04-15T20:50:40.907Z,67.70
2023-04-15T20:53:12.641Z,67.96
2023-04-15T20:55:44.302Z,68.41
2023-04-15T20:58:15.929Z,68.11
2023-04-15T21:00:49.324Z,68.85
2023-04-15T21:03:21.143Z,69.46
2023-04-15T21:05:52.824Z,69.39
2023-04-15T21:08:24.382Z,67.27
2023-04-15T21:10:56.818Z,67.60
2023-04-15T21:13:28.432Z,67.33
2023-04-15T21:16:00.011Z,67.93
2023-04-15T21:18:31.692Z,68.13
2023-04-15T21:21:03.566Z,68.03
2023-04-15T21:23:35.270Z,67.70
2023-04-15T21:26:06.896Z,68.83
2023-04-15T21:28:38.444Z,68.25
2023-04-15T21:31:10.186Z,67.42
2023-04-15T21:33:41.978Z,67.56
2023-04-15T21:36:13.570Z,68.06
2023-04-15T21:38:45.149Z,67.50
2023-04-15T21:41:16.815Z,67.68
2023-04-15T21:43:48.721Z,67.80
2023-04-15T21:46:22.129Z,67.23
2023-04-15T21:48:56.442Z,67.84
2023-04-15T21:51:28.226Z,67.40
2023-04-15T21:53:59.970Z,67.76
2023-04-15T21:56:32.404Z,67.68
2023-04-15T21:59:04.197Z,67.19
2023-04-15T22:01:36.077Z,67.13
2023-04-15T22:04:08.161Z,67.30
2023-04-15T22:06:39.987Z,67.45
2023-04-15T22:09:13.974Z,67.11
2023-04-15T22:11:46.321Z,67.17
2023-04-15T22:14:18.474Z,67.71
2023-04-15T22:16:50.168Z,67.59
2023-04-15T22:19:21.881Z,67.24
2023-04-15T22:21:53.732Z,66.49
2023-04-15T22:24:34.550Z,67.13
2023-04-15T22:27:12.368Z,66.64
2023-04-15T22:29:44.166Z,66.59
2023-04-15T22:32:16.158Z,66.89
2023-04-15T22:34:47.806Z,67.24
2023-04-15T22:37:19.503Z,67.11
2023-04-15T22:39:51.420Z,67.17
2023-04-15T22:42:23.420Z,67.03
2023-04-15T22:44:55.038Z,66.41
2023-04-15T22:47:26.887Z,65.91
2023-04-15T22:49:58.918Z,67.47
2023-04-15T22:52:31.422Z,67.53
2023-04-15T22:55:04.286Z,67.26
2023-04-15T22:57:35.924Z,66.75
2023-04-15T23:00:09.768Z,66.14
2023-04-15T23:02:41.565Z,66.41
2023-04-15T23:05:13.624Z,67.03
2023-04-15T23:07:45.476Z,66.84
2023-04-15T23:10:17.330Z,66.53
2023-04-15T23:12:49.662Z,66.56
2023-04-15T23:15:21.627Z,66.44
2023-04-15T23:17:53.507Z,66.84
2023-04-15T23:20:25.833Z,67.03
2023-04-15T23:22:57.499Z,67.71
2023-04-15T23:25:29.325Z,67.41
2023-04-15T23:28:01.033Z,66.76
2023-04-15T23:30:32.907Z,67.03
2023-04-15T23:33:04.694Z,66.49
2023-04-15T23:35:36.242Z,65.97
2023-04-15T23:38:07.812Z,66.44
2023-04-15T23:40:39.659Z,67.10
2023-04-15T23:43:11.261Z,66.61
2023-04-15T23:45:42.813Z,67.20
2023-04-15T23:48:14.408Z,67.38
2023-04-15T23:50:46.032Z,66.82
2023-04-15T23:53:17.873Z,66.53
2023-04-15T23:55:49.454Z,67.08
2023-04-15T23:58:20.970Z,67.03
